PAKH

Akhiok Airport

Akhiok, Alaska, USA
METAR PAKH 170102Z AUTO 09014KT 10SM FEW009 SCT014 OVC024 04/04 A2944 RMK AO2 $
Observed Flight Rules
Jan-17 @ 01:02 UTC (34 minutes ago) Marginal Visual Flight Rules
Wind Visibility Clouds
90° at 14 knots 10 miles
  • Few at 900' AGL
  • Scattered at 1,400' AGL
  • Overcast at 2,400' AGL
Temperatures Readings
Current 4°C / 39°F
Dewpoint 4°C / 39°F
Humidity 100%
Altimeter 29.44" Hg
Pressure 996.92 hPa
Elevation 14
METAR PAKH 170102Z AUTO 09014KT 10SM FEW009 SCT014 OVC024 04/04 A2944 RMK AO2 $
Observed Flight Rules
Jan-17 @ 01:02 UTC
(34 minutes ago)
MVFR
Wind Visibility
90° at 14 knots 10 miles
Clouds
  • Few at 900' AGL
  • Scattered at 1,400' AGL
  • Overcast at 2,400' AGL
Temperature Dewpoint
4°C / 39°F 4°C / 39°F
Humidity Altimeter Pressure
100% 29.44" Hg 996.92 hPa